Time;durP1;ratioP1;P1;durP2;ratioP2;P2;SDS_P1;SDS_P2;PMS_P1;PMS_P2;Temp;Humidity;BMP_temperature;BMP_pressure;BME280_temperature;BME280_humidity;BME280_pressure;Samples;Min_cycle;Max_cycle;Signal;HPM_P1;HPM_P2
2023/06/19 00:02:14;;;;;;;0.00;0.00;;;22.40;69.80;;;;;;5053459;28;20200;-68
2023/06/19 00:04:40;;;;;;;0.10;0.10;;;22.40;70.10;;;;;;5057593;28;20181;-68
2023/06/19 00:07:06;;;;;;;0.00;0.00;;;22.30;70.60;;;;;;5073419;28;20263;-68
2023/06/19 00:09:32;;;;;;;0.00;0.00;;;22.30;70.80;;;;;;5074558;28;20830;-68
2023/06/19 00:11:59;;;;;;;0.00;0.00;;;22.20;71.10;;;;;;5074471;28;20246;-68
2023/06/19 00:14:25;;;;;;;0.00;0.00;;;22.10;71.20;;;;;;5074283;28;20238;-68
2023/06/19 00:16:50;;;;;;;0.00;0.00;;;22.10;71.50;;;;;;5074146;28;20185;-68
2023/06/19 00:19:17;;;;;;;0.00;0.00;;;22.00;71.70;;;;;;5074164;28;20180;-68
2023/06/19 00:21:43;;;;;;;0.00;0.00;;;21.90;71.70;;;;;;5073972;28;20181;-68
2023/06/19 00:24:09;;;;;;;0.00;0.00;;;21.90;72.20;;;;;;5073949;28;20177;-68
2023/06/19 00:26:35;;;;;;;0.03;0.03;;;21.90;72.50;;;;;;5073957;28;20691;-69
2023/06/19 00:29:00;;;;;;;0.00;0.00;;;21.80;72.50;;;;;;5073823;28;20200;-68
2023/06/19 00:31:27;;;;;;;0.00;0.00;;;21.80;73.10;;;;;;5072978;28;20184;-69
2023/06/19 00:33:53;;;;;;;0.15;0.15;;;21.80;73.10;;;;;;5073415;28;20176;-69
2023/06/19 00:36:20;;;;;;;0.08;0.00;;;21.80;73.40;;;;;;5073662;28;20181;-69
2023/06/19 00:38:46;;;;;;;0.10;0.10;;;21.70;73.90;;;;;;5073380;28;20212;-69
2023/06/19 00:41:11;;;;;;;0.00;0.00;;;21.70;74.10;;;;;;5073718;28;20212;-69
2023/06/19 00:43:37;;;;;;;0.00;0.00;;;21.70;74.30;;;;;;5073389;28;20188;-69
2023/06/19 00:46:03;;;;;;;0.00;0.00;;;21.70;74.80;;;;;;5073966;28;20188;-69
2023/06/19 00:48:31;;;;;;;0.00;0.00;;;21.60;75.50;;;;;;5073882;28;20230;-69
2023/06/19 00:50:57;;;;;;;0.00;0.00;;;21.60;75.80;;;;;;5073813;28;20285;-69
2023/06/19 00:53:23;;;;;;;0.00;0.00;;;21.60;75.80;;;;;;5073815;28;20169;-69
2023/06/19 00:55:51;;;;;;;0.00;0.00;;;21.60;76.00;;;;;;5073631;28;20215;-69
2023/06/19 00:58:18;;;;;;;1.65;0.85;;;21.60;77.00;;;;;;5073738;28;20168;-69
2023/06/19 01:00:44;;;;;;;0.00;0.00;;;21.80;76.50;;;;;;5073756;28;20177;-69
2023/06/19 01:03:09;;;;;;;0.05;0.05;;;21.80;76.30;;;;;;5073666;28;20191;-68
2023/06/19 01:05:35;;;;;;;0.00;0.00;;;21.90;76.60;;;;;;5073434;28;20177;-69
2023/06/19 01:08:14;;;;;;;0.00;0.00;;;21.90;76.90;;;;;;5073235;28;20177;-69
2023/06/19 01:10:44;;;;;;;0.00;0.00;;;21.90;77.40;;;;;;5072986;28;20199;-69
2023/06/19 01:13:46;;;;;;;0.00;0.00;;;21.90;78.10;;;;;;5071595;28;20255;-69
2023/06/19 01:16:13;;;;;;;0.00;0.00;;;22.00;78.90;;;;;;5062279;28;20588;-69
2023/06/19 01:18:39;;;;;;;0.10;0.10;;;22.00;79.30;;;;;;5073101;28;20191;-69
2023/06/19 01:21:15;;;;;;;0.08;0.08;;;22.10;79.80;;;;;;5073420;28;20187;-69
2023/06/19 01:23:41;;;;;;;0.00;0.00;;;22.10;80.00;;;;;;5073020;28;20275;-70
2023/06/19 01:26:08;;;;;;;0.00;0.00;;;22.10;80.20;;;;;;5073051;28;20366;-70
2023/06/19 01:28:38;;;;;;;0.00;0.00;;;22.10;80.80;;;;;;5072282;28;20235;-70
2023/06/19 01:31:10;;;;;;;0.00;0.00;;;22.20;81.10;;;;;;5071628;28;20533;-70
2023/06/19 01:33:38;;;;;;;0.00;0.00;;;22.10;81.40;;;;;;5072795;28;20169;-70
2023/06/19 01:36:04;;;;;;;0.00;0.00;;;22.10;81.80;;;;;;5073097;28;20181;-70
2023/06/19 01:38:31;;;;;;;0.00;0.00;;;22.10;82.00;;;;;;5072898;28;20290;-69
2023/06/19 01:40:59;;;;;;;0.00;0.00;;;22.20;82.50;;;;;;5072746;28;20177;-70
2023/06/19 01:43:25;;;;;;;0.00;0.00;;;22.20;83.00;;;;;;5072701;28;20184;-70
2023/06/19 01:45:52;;;;;;;0.00;0.00;;;22.10;83.50;;;;;;5072275;28;20656;-70
2023/06/19 01:48:17;;;;;;;0.00;0.00;;;22.10;84.90;;;;;;5072692;28;20196;-70
2023/06/19 01:50:47;;;;;;;0.00;0.00;;;22.00;86.20;;;;;;5072446;28;20179;-70
2023/06/19 01:53:13;;;;;;;0.00;0.00;;;22.00;87.70;;;;;;5072701;28;20196;-71
2023/06/19 01:55:38;;;;;;;0.00;0.00;;;21.90;88.90;;;;;;5072528;28;20682;-70
2023/06/19 01:58:04;;;;;;;0.00;0.00;;;21.90;90.30;;;;;;5072333;28;20180;-70
2023/06/19 02:00:30;;;;;;;0.00;0.00;;;21.80;90.70;;;;;;5072631;28;20208;-69
2023/06/19 02:02:55;;;;;;;0.00;0.00;;;21.80;91.40;;;;;;5072694;28;20169;-70
2023/06/19 02:05:21;;;;;;;0.00;0.00;;;21.80;92.00;;;;;;5072865;28;20183;-71
2023/06/19 02:07:47;;;;;;;0.00;0.00;;;21.80;92.60;;;;;;5072472;28;20194;-71
2023/06/19 02:10:12;;;;;;;0.00;0.00;;;21.70;93.30;;;;;;5072474;28;20212;-70
2023/06/19 02:12:38;;;;;;;0.00;0.00;;;21.70;93.90;;;;;;5072011;28;20237;-71
2023/06/19 02:15:04;;;;;;;0.00;0.00;;;21.60;94.60;;;;;;5072108;28;20177;-71
2023/06/19 02:17:30;;;;;;;0.00;0.00;;;21.60;96.20;;;;;;5072270;28;20176;-71
2023/06/19 02:19:55;;;;;;;0.20;0.20;;;21.50;97.80;;;;;;5071850;28;20508;-71
2023/06/19 02:22:21;;;;;;;0.00;0.00;;;21.40;99.00;;;;;;5072301;28;20687;-71
2023/06/19 02:24:46;;;;;;;0.00;0.00;;;21.30;99.90;;;;;;5071717;28;20181;-72
2023/06/19 02:27:12;;;;;;;0.00;0.00;;;21.20;99.90;;;;;;5071545;28;20251;-71
2023/06/19 02:29:37;;;;;;;0.00;0.00;;;21.00;99.90;;;;;;5071331;28;20635;-70
2023/06/19 02:32:03;;;;;;;0.00;0.00;;;20.90;99.90;;;;;;5071980;28;20176;-70
2023/06/19 02:34:29;;;;;;;0.00;0.00;;;20.80;99.90;;;;;;5071679;28;20191;-69
2023/06/19 02:36:54;;;;;;;0.00;0.00;;;20.70;99.90;;;;;;5071557;28;20612;-71
2023/06/19 02:39:21;;;;;;;0.00;0.00;;;20.50;99.90;;;;;;5072007;28;20652;-71
2023/06/19 02:41:46;;;;;;;0.00;0.00;;;20.50;99.90;;;;;;5071664;28;20189;-71
2023/06/19 02:44:13;;;;;;;0.00;0.00;;;20.40;99.90;;;;;;5071791;28;20209;-71
2023/06/19 02:46:38;;;;;;;0.00;0.00;;;20.30;99.90;;;;;;5071693;28;20176;-71
2023/06/19 02:49:04;;;;;;;0.00;0.00;;;20.30;99.90;;;;;;5071619;28;20266;-71
2023/06/19 02:51:29;;;;;;;0.00;0.00;;;20.20;99.90;;;;;;5071521;28;20192;-71
2023/06/19 02:53:55;;;;;;;0.00;0.00;;;20.20;99.90;;;;;;5071275;28;20169;-71
2023/06/19 02:56:20;;;;;;;0.00;0.00;;;20.20;99.90;;;;;;5072076;28;20210;-71
2023/06/19 02:58:46;;;;;;;0.00;0.00;;;20.20;99.90;;;;;;5071682;28;20196;-71
2023/06/19 03:01:12;;;;;;;0.00;0.00;;;20.20;99.90;;;;;;5071296;28;20195;-71
2023/06/19 03:03:38;;;;;;;0.00;0.00;;;20.10;99.90;;;;;;5071476;28;20189;-70
2023/06/19 03:06:07;;;;;;;0.00;0.00;;;20.10;99.90;;;;;;5071569;28;20181;-71
2023/06/19 03:08:37;;;;;;;0.00;0.00;;;20.00;99.90;;;;;;5070957;28;20211;-70
2023/06/19 03:11:05;;;;;;;0.00;0.00;;;20.00;99.90;;;;;;5071389;28;20187;-70
2023/06/19 03:13:50;;;;;;;0.00;0.00;;;20.00;99.90;;;;;;5071345;28;20264;-70
2023/06/19 03:16:16;;;;;;;0.00;0.00;;;20.00;99.90;;;;;;5071262;28;20184;-71
2023/06/19 03:18:45;;;;;;;0.00;0.00;;;20.00;99.90;;;;;;5070830;28;20200;-70
2023/06/19 03:21:11;;;;;;;0.00;0.00;;;19.90;99.90;;;;;;5070907;28;20176;-71
2023/06/19 03:23:37;;;;;;;0.00;0.00;;;20.00;99.90;;;;;;5071068;28;20172;-71
2023/06/19 03:26:03;;;;;;;0.00;0.00;;;19.90;99.90;;;;;;5070917;28;20246;-71
2023/06/19 03:28:28;;;;;;;0.00;0.00;;;20.00;99.90;;;;;;5070850;28;20299;-70
2023/06/19 03:30:54;;;;;;;0.00;0.00;;;20.00;99.90;;;;;;5070691;28;20184;-70
2023/06/19 03:33:20;;;;;;;0.00;0.00;;;20.00;99.90;;;;;;5071298;28;20230;-70
2023/06/19 03:35:45;;;;;;;0.00;0.00;;;20.00;99.90;;;;;;5069336;28;20181;-70
2023/06/19 03:38:11;;;;;;;0.00;0.00;;;20.00;99.90;;;;;;5070950;28;20169;-71
2023/06/19 03:40:36;;;;;;;0.00;0.00;;;20.00;99.90;;;;;;5070972;28;20248;-70
2023/06/19 03:43:02;;;;;;;0.00;0.00;;;20.00;99.90;;;;;;5070170;28;20189;-68
2023/06/19 03:45:27;;;;;;;0.00;0.00;;;20.10;99.90;;;;;;5070598;28;20579;-70
2023/06/19 03:47:53;;;;;;;0.00;0.00;;;20.10;99.90;;;;;;5070355;28;20271;-73
2023/06/19 03:50:19;;;;;;;0.00;0.00;;;20.10;99.90;;;;;;5070198;28;20582;-67
2023/06/19 03:52:44;;;;;;;0.00;0.00;;;20.20;99.90;;;;;;5069944;28;20189;-72
2023/06/19 03:55:10;;;;;;;0.00;0.00;;;20.30;99.90;;;;;;5070764;28;20218;-71
2023/06/19 03:57:35;;;;;;;0.00;0.00;;;20.30;99.90;;;;;;5069750;28;20541;-70
2023/06/19 04:00:01;;;;;;;0.00;0.00;;;20.30;99.90;;;;;;5070625;28;20181;-71
2023/06/19 04:02:27;;;;;;;0.00;0.00;;;20.30;99.90;;;;;;5071756;28;20187;-71
2023/06/19 04:04:53;;;;;;;0.00;0.00;;;20.30;99.90;;;;;;5070136;28;20212;-71
2023/06/19 04:07:19;;;;;;;0.00;0.00;;;20.30;99.90;;;;;;5070192;28;20713;-72
2023/06/19 04:09:44;;;;;;;0.00;0.00;;;20.30;99.90;;;;;;5069232;28;20225;-71
2023/06/19 04:12:10;;;;;;;0.17;0.17;;;20.30;99.90;;;;;;5070166;28;20533;-69
2023/06/19 04:14:35;;;;;;;0.00;0.00;;;20.30;99.90;;;;;;5070394;28;20644;-69
2023/06/19 04:17:01;;;;;;;0.00;0.00;;;20.40;99.90;;;;;;5070402;28;20169;-71
2023/06/19 04:19:26;;;;;;;0.00;0.00;;;20.40;99.90;;;;;;5070507;28;20191;-71
2023/06/19 04:21:54;;;;;;;0.15;0.13;;;20.50;99.90;;;;;;5069869;28;20525;-70
2023/06/19 04:24:20;;;;;;;0.00;0.00;;;20.50;99.90;;;;;;5069700;28;20668;-70
2023/06/19 04:26:45;;;;;;;0.00;0.00;;;20.50;99.90;;;;;;5070080;28;20229;-70
2023/06/19 04:29:16;;;;;;;0.00;0.00;;;20.60;99.90;;;;;;5070522;28;20217;-70
2023/06/19 04:31:46;;;;;;;0.00;0.00;;;20.70;99.90;;;;;;5070119;28;20647;-70
2023/06/19 04:34:14;;;;;;;0.00;0.00;;;20.80;99.90;;;;;;5070388;28;20644;-70
2023/06/19 04:36:40;;;;;;;0.00;0.00;;;20.90;99.90;;;;;;5070011;28;20534;-70
2023/06/19 04:39:06;;;;;;;0.00;0.00;;;20.90;99.90;;;;;;5070132;28;20255;-70
2023/06/19 04:41:32;;;;;;;0.00;0.00;;;21.00;99.90;;;;;;5070161;28;20248;-70
2023/06/19 04:43:58;;;;;;;0.00;0.00;;;21.10;99.90;;;;;;5069956;28;20199;-70
2023/06/19 04:46:23;;;;;;;0.00;0.00;;;21.10;99.90;;;;;;5070240;28;20180;-70
2023/06/19 04:48:50;;;;;;;0.00;0.00;;;21.20;99.90;;;;;;5073007;28;20200;-70
2023/06/19 04:51:20;;;;;;;0.00;0.00;;;21.20;99.90;;;;;;5073898;28;20585;-70
2023/06/19 04:53:46;;;;;;;0.00;0.00;;;21.30;99.90;;;;;;5073676;28;20238;-70
2023/06/19 04:56:12;;;;;;;0.03;0.03;;;21.30;99.90;;;;;;5073893;28;20172;-71
2023/06/19 04:58:45;;;;;;;0.00;0.00;;;21.40;99.90;;;;;;5073866;28;20181;-70
2023/06/19 05:01:14;;;;;;;0.00;0.00;;;21.40;99.90;;;;;;5074022;28;20192;-70
2023/06/19 05:03:40;;;;;;;0.00;0.00;;;21.50;99.90;;;;;;5073685;28;20173;-70
2023/06/19 05:06:06;;;;;;;0.00;0.00;;;21.50;99.90;;;;;;5073918;28;20176;-71
2023/06/19 05:08:31;;;;;;;0.28;0.28;;;21.50;99.90;;;;;;5073713;28;20165;-69
2023/06/19 05:10:57;;;;;;;0.00;0.00;;;21.60;99.90;;;;;;5073824;28;20181;-71
2023/06/19 05:13:26;;;;;;;0.00;0.00;;;21.60;99.90;;;;;;5073674;28;20477;-70
2023/06/19 05:15:52;;;;;;;0.00;0.00;;;21.70;99.90;;;;;;5073692;28;20275;-70
2023/06/19 05:18:17;;;;;;;0.00;0.00;;;21.80;99.90;;;;;;5073532;28;20260;-71
2023/06/19 05:20:44;;;;;;;0.00;0.00;;;21.70;99.90;;;;;;5073697;28;20172;-71
2023/06/19 05:23:09;;;;;;;0.00;0.00;;;21.80;99.90;;;;;;5073532;28;20177;-70
2023/06/19 05:25:35;;;;;;;0.00;0.00;;;21.90;99.90;;;;;;5072935;28;20231;-70
2023/06/19 05:28:00;;;;;;;0.00;0.00;;;21.90;99.90;;;;;;5073141;28;20243;-70
2023/06/19 05:30:26;;;;;;;0.00;0.00;;;21.90;99.90;;;;;;5073172;28;20688;-70
2023/06/19 05:32:52;;;;;;;0.00;0.00;;;21.90;99.90;;;;;;5071650;28;20267;-69
2023/06/19 05:35:17;;;;;;;0.00;0.00;;;22.00;99.90;;;;;;5071770;28;20188;-70
2023/06/19 05:37:43;;;;;;;0.00;0.00;;;22.20;99.90;;;;;;5073018;28;20165;-69
2023/06/19 05:40:10;;;;;;;0.10;0.10;;;22.30;99.90;;;;;;5073348;28;20657;-69
2023/06/19 05:42:36;;;;;;;0.00;0.00;;;22.70;99.90;;;;;;5072967;28;20667;-69
2023/06/19 05:45:03;;;;;;;0.00;0.00;;;23.30;99.90;;;;;;5073044;28;20177;-69
2023/06/19 05:47:30;;;;;;;0.00;0.00;;;24.10;99.90;;;;;;5073256;28;20286;-70
2023/06/19 05:49:58;;;;;;;0.00;0.00;;;24.90;99.90;;;;;;5072770;28;20303;-71
2023/06/19 05:52:24;;;;;;;0.00;0.00;;;25.90;99.60;;;;;;5071700;28;20169;-71
2023/06/19 05:54:50;;;;;;;0.08;0.08;;;26.80;97.90;;;;;;5073104;28;20181;-69
2023/06/19 05:57:18;;;;;;;0.00;0.00;;;27.50;95.90;;;;;;5072908;28;20173;-69
2023/06/19 05:59:44;;;;;;;0.10;0.10;;;28.20;94.50;;;;;;5072388;28;20230;-69
2023/06/19 06:02:09;;;;;;;0.17;0.17;;;28.60;92.80;;;;;;5073172;28;20628;-69
2023/06/19 06:04:36;;;;;;;0.00;0.00;;;28.90;91.70;;;;;;5073017;28;20178;-69
2023/06/19 06:07:01;;;;;;;0.00;0.00;;;29.40;90.70;;;;;;5073144;28;20176;-69
2023/06/19 06:09:27;;;;;;;0.00;0.00;;;29.90;89.60;;;;;;5073022;28;20208;-70
2023/06/19 06:11:52;;;;;;;0.00;0.00;;;30.00;85.80;;;;;;5072988;28;20519;-70
2023/06/19 06:14:18;;;;;;;0.00;0.00;;;29.90;83.40;;;;;;5071677;28;20176;-68
2023/06/19 06:16:44;;;;;;;0.00;0.00;;;30.00;84.40;;;;;;5072890;28;20659;-69
2023/06/19 06:19:09;;;;;;;0.00;0.00;;;30.70;82.50;;;;;;5072748;28;20502;-70
2023/06/19 06:21:35;;;;;;;0.00;0.00;;;31.00;80.70;;;;;;5072772;28;20202;-69
2023/06/19 06:24:00;;;;;;;0.00;0.00;;;31.10;79.60;;;;;;5072535;28;20529;-69
2023/06/19 06:26:27;;;;;;;0.00;0.00;;;31.30;77.90;;;;;;5072396;28;20191;-69
2023/06/19 06:28:53;;;;;;;0.00;0.00;;;31.50;76.10;;;;;;5072618;28;20258;-68
2023/06/19 06:31:19;;;;;;;0.00;0.00;;;31.30;75.10;;;;;;5072562;28;20188;-69
2023/06/19 06:33:44;;;;;;;0.00;0.00;;;31.20;75.00;;;;;;5072541;28;20211;-69
2023/06/19 06:36:10;;;;;;;0.00;0.00;;;31.20;74.50;;;;;;5072680;28;20279;-69
2023/06/19 06:38:35;;;;;;;0.00;0.00;;;31.40;74.30;;;;;;5072298;28;20192;-69
2023/06/19 06:41:01;;;;;;;0.00;0.00;;;31.80;73.30;;;;;;5072545;28;20183;-70
2023/06/19 06:43:26;;;;;;;0.00;0.00;;;32.40;71.30;;;;;;5072495;28;20555;-70
2023/06/19 06:45:52;;;;;;;0.00;0.00;;;32.40;69.90;;;;;;5072321;28;20203;-70
2023/06/19 06:48:18;;;;;;;0.00;0.00;;;32.80;69.40;;;;;;5072165;28;20268;-70
2023/06/19 06:50:43;;;;;;;0.00;0.00;;;32.80;68.40;;;;;;5072147;28;20227;-70
2023/06/19 06:53:09;;;;;;;0.00;0.00;;;32.30;68.40;;;;;;5072331;28;20259;-70
2023/06/19 06:55:34;;;;;;;0.00;0.00;;;32.10;69.40;;;;;;5070859;28;20187;-70
2023/06/19 06:58:00;;;;;;;0.00;0.00;;;32.10;69.20;;;;;;5072122;28;20168;-70
2023/06/19 07:00:25;;;;;;;0.00;0.00;;;31.70;69.30;;;;;;5072164;28;20172;-70
2023/06/19 07:02:51;;;;;;;0.00;0.00;;;31.00;70.10;;;;;;5070801;28;20173;-70
2023/06/19 07:05:17;;;;;;;0.00;0.00;;;30.40;72.50;;;;;;5071958;28;20165;-70
2023/06/19 07:07:42;;;;;;;0.00;0.00;;;30.20;74.00;;;;;;5071894;28;20222;-70
2023/06/19 07:10:09;;;;;;;0.00;0.00;;;30.20;74.10;;;;;;5071804;28;20208;-70
2023/06/19 07:12:36;;;;;;;0.00;0.00;;;30.40;74.50;;;;;;5070976;28;20279;-70
2023/06/19 07:15:01;;;;;;;0.00;0.00;;;30.90;73.60;;;;;;5071753;28;20222;-70
2023/06/19 07:17:27;;;;;;;0.00;0.00;;;30.90;72.80;;;;;;5071882;28;20176;-70
2023/06/19 07:19:52;;;;;;;0.10;0.10;;;31.20;72.00;;;;;;5070349;28;20631;-70
2023/06/19 07:22:18;;;;;;;0.00;0.00;;;30.80;71.00;;;;;;5071572;28;20264;-70
2023/06/19 07:24:43;;;;;;;0.10;0.10;;;30.40;72.20;;;;;;5071610;28;20188;-70
2023/06/19 07:27:09;;;;;;;0.00;0.00;;;30.30;73.80;;;;;;5071632;28;20318;-70
2023/06/19 07:29:34;;;;;;;0.00;0.00;;;30.20;73.70;;;;;;5071347;28;20306;-70
2023/06/19 07:32:02;;;;;;;0.00;0.00;;;30.70;73.80;;;;;;5071753;28;20178;-71
2023/06/19 07:34:27;;;;;;;0.10;0.10;;;30.50;72.80;;;;;;5071711;28;20180;-70
2023/06/19 07:36:53;;;;;;;0.00;0.00;;;30.50;73.90;;;;;;5071478;28;20188;-70
2023/06/19 07:39:19;;;;;;;0.00;0.00;;;30.50;73.10;;;;;;5071443;28;20175;-70
2023/06/19 07:41:45;;;;;;;0.00;0.00;;;31.10;73.10;;;;;;5071484;28;20310;-70
2023/06/19 07:44:11;;;;;;;0.00;0.00;;;30.90;71.60;;;;;;5071479;28;20172;-70
2023/06/19 07:46:37;;;;;;;0.00;0.00;;;30.60;72.60;;;;;;5071265;28;20188;-70
2023/06/19 07:49:02;;;;;;;0.00;0.00;;;30.30;73.50;;;;;;5071485;28;20208;-70
2023/06/19 07:51:28;;;;;;;0.00;0.00;;;29.70;74.90;;;;;;5071389;28;20659;-70
2023/06/19 07:53:53;;;;;;;0.00;0.00;;;29.30;75.60;;;;;;5071595;28;20584;-70
2023/06/19 07:56:19;;;;;;;0.00;0.00;;;29.00;76.90;;;;;;5071340;28;20669;-71
2023/06/19 07:58:46;;;;;;;0.00;0.00;;;28.70;78.10;;;;;;5071357;28;20184;-70
2023/06/19 08:01:12;;;;;;;0.00;0.00;;;28.50;79.70;;;;;;5071414;28;20241;-71
2023/06/19 08:03:37;;;;;;;0.00;0.00;;;28.80;79.80;;;;;;5071132;28;20569;-71
2023/06/19 08:06:03;;;;;;;0.00;0.00;;;29.40;79.10;;;;;;5071388;28;20173;-70
2023/06/19 08:08:29;;;;;;;0.00;0.00;;;30.10;77.20;;;;;;5071301;28;20169;-70
2023/06/19 08:10:54;;;;;;;0.00;0.00;;;30.80;74.50;;;;;;5071159;28;20184;-71
2023/06/19 08:13:20;;;;;;;0.30;0.17;;;31.20;72.00;;;;;;5071300;28;20187;-71
2023/06/19 08:15:45;;;;;;;0.00;0.00;;;31.50;71.30;;;;;;5071093;28;20221;-70
2023/06/19 08:18:11;;;;;;;0.00;0.00;;;31.90;68.90;;;;;;5071177;28;20164;-71
2023/06/19 08:20:36;;;;;;;0.00;0.00;;;32.10;68.80;;;;;;5069799;28;20570;-72
2023/06/19 08:23:02;;;;;;;0.00;0.00;;;32.00;67.90;;;;;;5073046;28;20188;-71
2023/06/19 08:25:27;;;;;;;0.00;0.00;;;31.60;67.20;;;;;;5075056;28;20181;-71
2023/06/19 08:27:53;;;;;;;0.00;0.00;;;31.50;68.30;;;;;;5074841;28;20235;-71
2023/06/19 08:30:18;;;;;;;0.00;0.00;;;31.00;67.90;;;;;;5074816;28;20212;-71
2023/06/19 08:32:46;;;;;;;0.00;0.00;;;31.10;69.30;;;;;;5074850;28;20260;-71
2023/06/19 08:35:12;;;;;;;0.00;0.00;;;31.30;69.30;;;;;;5074861;28;20184;-71
2023/06/19 08:37:37;;;;;;;0.00;0.00;;;31.20;68.50;;;;;;5074773;28;20175;-71
2023/06/19 08:40:08;;;;;;;0.00;0.00;;;31.70;68.60;;;;;;5074873;28;20173;-72
2023/06/19 08:42:34;;;;;;;0.00;0.00;;;32.20;68.10;;;;;;5074849;28;20984;-71
2023/06/19 08:44:59;;;;;;;0.00;0.00;;;32.80;66.50;;;;;;5073589;28;20184;-71
2023/06/19 08:47:30;;;;;;;0.00;0.00;;;33.00;65.90;;;;;;5074590;28;20208;-71
2023/06/19 08:49:56;;;;;;;0.00;0.00;;;33.20;63.30;;;;;;5074449;28;20840;-72
2023/06/19 08:52:21;;;;;;;0.00;0.00;;;33.10;63.30;;;;;;5074646;28;20172;-72
2023/06/19 08:54:47;;;;;;;0.00;0.00;;;32.60;64.60;;;;;;5074380;28;20599;-69
2023/06/19 08:57:12;;;;;;;0.00;0.00;;;32.20;65.30;;;;;;5074470;28;20179;-69
2023/06/19 08:59:38;;;;;;;0.00;0.00;;;31.80;65.70;;;;;;5074251;28;20195;-69
2023/06/19 09:02:03;;;;;;;0.00;0.00;;;31.90;67.50;;;;;;5072963;28;20647;-69
2023/06/19 09:04:30;;;;;;;0.00;0.00;;;31.70;66.70;;;;;;5074348;28;20173;-68
2023/06/19 09:06:58;;;;;;;0.00;0.00;;;31.70;68.10;;;;;;5074184;28;20263;-68
2023/06/19 09:09:26;;;;;;;0.10;0.10;;;31.80;67.50;;;;;;5074123;28;20216;-68
2023/06/19 09:11:58;;;;;;;0.00;0.00;;;31.80;67.40;;;;;;5074042;28;20175;-68
2023/06/19 09:14:31;;;;;;;0.00;0.00;;;31.60;68.10;;;;;;5074203;28;20183;-68
2023/06/19 09:16:57;;;;;;;0.00;0.00;;;31.30;68.10;;;;;;5074163;28;20177;-68
2023/06/19 09:19:22;;;;;;;0.00;0.00;;;31.60;68.90;;;;;;5074000;28;20185;-68
2023/06/19 09:21:48;;;;;;;0.00;0.00;;;31.80;68.50;;;;;;5073923;28;20249;-68
2023/06/19 09:24:14;;;;;;;0.00;0.00;;;32.10;67.60;;;;;;5073992;28;20644;-68
2023/06/19 09:26:39;;;;;;;0.00;0.00;;;32.00;67.90;;;;;;5073794;28;20221;-68
2023/06/19 09:29:11;;;;;;;0.00;0.00;;;31.90;67.50;;;;;;5074699;28;20216;-69
2023/06/19 09:31:37;;;;;;;0.00;0.00;;;31.60;69.10;;;;;;5073792;28;20173;-68
2023/06/19 09:34:04;;;;;;;0.00;0.00;;;31.90;69.00;;;;;;5072857;28;20176;-68
2023/06/19 09:36:32;;;;;;;0.00;0.00;;;32.20;69.60;;;;;;5073746;28;20223;-67
2023/06/19 09:38:59;;;;;;;0.00;0.00;;;32.10;67.30;;;;;;5073646;28;20180;-68
2023/06/19 09:41:25;;;;;;;0.10;0.10;;;31.60;68.10;;;;;;5072313;28;20179;-69
2023/06/19 09:43:54;;;;;;;0.00;0.00;;;31.20;68.50;;;;;;5073609;28;20181;-68
2023/06/19 09:46:21;;;;;;;0.10;0.10;;;30.80;70.40;;;;;;5073549;28;20173;-68
2023/06/19 09:48:50;;;;;;;0.00;0.00;;;30.40;71.20;;;;;;5073504;28;20537;-68
2023/06/19 09:51:23;;;;;;;0.00;0.00;;;30.20;72.50;;;;;;5073343;28;20185;-68
2023/06/19 09:53:49;;;;;;;0.00;0.00;;;29.90;73.40;;;;;;5073343;28;20173;-68
2023/06/19 09:56:17;;;;;;;0.10;0.10;;;30.10;74.80;;;;;;5071972;28;20400;-68
2023/06/19 09:58:44;;;;;;;0.00;0.00;;;30.50;73.50;;;;;;5073252;28;20200;-68
2023/06/19 10:01:11;;;;;;;0.00;0.00;;;30.90;72.60;;;;;;5073369;28;20208;-68
2023/06/19 10:03:37;;;;;;;0.00;0.00;;;31.40;71.10;;;;;;5073101;28;20757;-68
2023/06/19 10:06:04;;;;;;;0.00;0.00;;;31.70;69.20;;;;;;5073127;28;20830;-69
2023/06/19 10:08:40;;;;;;;0.00;0.00;;;32.10;69.40;;;;;;5073155;28;20204;-67
2023/06/19 10:11:06;;;;;;;0.00;0.00;;;32.50;68.00;;;;;;5073150;28;20544;-68
2023/06/19 10:13:34;;;;;;;0.00;0.00;;;32.80;68.00;;;;;;5071798;28;20169;-68
2023/06/19 10:16:01;;;;;;;0.03;0.03;;;33.10;66.20;;;;;;5072942;28;20667;-68
2023/06/19 10:18:26;;;;;;;0.10;0.10;;;32.80;65.70;;;;;;5072848;28;20534;-68
2023/06/19 10:20:54;;;;;;;0.00;0.00;;;33.00;67.50;;;;;;5072719;28;20176;-68
2023/06/19 10:23:23;;;;;;;0.00;0.00;;;33.20;66.50;;;;;;5072868;28;20172;-68
2023/06/19 10:25:54;;;;;;;0.00;0.00;;;33.20;65.00;;;;;;5072542;28;20512;-68
2023/06/19 10:28:29;;;;;;;0.00;0.00;;;33.00;64.80;;;;;;5072633;28;20243;-69
2023/06/19 10:31:08;;;;;;;0.00;0.00;;;32.70;63.80;;;;;;5072441;28;20204;-69
2023/06/19 10:33:40;;;;;;;0.00;0.00;;;32.50;65.10;;;;;;5072543;28;20192;-68
2023/06/19 10:36:21;;;;;;;0.10;0.10;;;32.20;65.80;;;;;;5072539;28;20546;-69
2023/06/19 10:38:47;;;;;;;0.00;0.00;;;32.40;67.00;;;;;;5072375;28;20238;-69
2023/06/19 10:41:16;;;;;;;0.00;0.00;;;32.20;66.40;;;;;;5072449;28;20196;-69
2023/06/19 10:43:42;;;;;;;0.20;0.20;;;32.00;66.80;;;;;;5072246;28;20177;-69
2023/06/19 10:46:07;;;;;;;0.00;0.00;;;32.10;67.70;;;;;;5072169;28;20181;-69
2023/06/19 10:48:33;;;;;;;0.00;0.00;;;32.40;65.80;;;;;;5072284;28;20196;-70
2023/06/19 10:50:59;;;;;;;0.00;0.00;;;32.40;65.10;;;;;;5072188;28;20230;-70
2023/06/19 10:53:31;;;;;;;0.00;0.00;;;32.10;65.50;;;;;;5072273;28;20211;-69
2023/06/19 10:56:01;;;;;;;0.00;0.00;;;31.90;66.40;;;;;;5072099;28;20266;-69
2023/06/19 10:58:28;;;;;;;0.00;0.00;;;31.90;66.90;;;;;;5070806;28;20570;-69
2023/06/19 11:00:53;;;;;;;0.10;0.10;;;32.10;66.60;;;;;;5072098;28;20199;-69
2023/06/19 11:03:20;;;;;;;0.00;0.00;;;32.40;66.40;;;;;;5072093;28;20588;-69
2023/06/19 11:05:46;;;;;;;0.00;0.00;;;32.30;65.90;;;;;;5071980;28;20173;-69
2023/06/19 11:08:18;;;;;;;0.00;0.00;;;32.20;65.80;;;;;;5072045;28;20185;-69
2023/06/19 11:10:43;;;;;;;0.10;0.10;;;32.20;66.30;;;;;;5071679;28;20231;-69
2023/06/19 11:13:15;;;;;;;0.00;0.00;;;31.80;67.10;;;;;;5071834;28;20639;-69
2023/06/19 11:15:41;;;;;;;0.00;0.00;;;31.50;68.00;;;;;;5071784;28;20275;-69
2023/06/19 11:18:06;;;;;;;0.05;0.05;;;31.40;68.50;;;;;;5071808;28;20169;-70
2023/06/19 11:20:44;;;;;;;0.00;0.00;;;31.60;69.40;;;;;;5071822;28;20187;-69
2023/06/19 11:23:09;;;;;;;0.00;0.00;;;31.70;67.00;;;;;;5071865;28;20206;-69
2023/06/19 11:25:39;;;;;;;0.20;0.20;;;31.70;67.10;;;;;;5064444;28;20189;-69
2023/06/19 11:28:13;;;;;;;0.00;0.00;;;31.80;67.10;;;;;;5051416;28;20700;-69
2023/06/19 11:30:39;;;;;;;0.00;0.00;;;32.10;67.50;;;;;;5051514;28;20213;-69
2023/06/19 11:33:22;;;;;;;0.00;0.00;;;32.30;65.30;;;;;;5051623;28;20575;-68
2023/06/19 11:35:52;;;;;;;0.15;0.00;;;32.40;65.50;;;;;;5051510;28;20373;-69
2023/06/19 11:38:22;;;;;;;0.00;0.00;;;32.60;64.30;;;;;;5051486;28;20177;-69
2023/06/19 11:40:48;;;;;;;0.00;0.00;;;32.60;64.30;;;;;;5051493;28;20264;-69
2023/06/19 11:43:31;;;;;;;0.00;0.00;;;32.80;65.30;;;;;;5051628;28;20763;-69
2023/06/19 11:46:04;;;;;;;0.00;0.00;;;33.10;64.90;;;;;;5051380;28;20181;-69
2023/06/19 11:48:30;;;;;;;0.00;0.00;;;33.60;64.00;;;;;;5050156;28;20181;-69
2023/06/19 11:50:55;;;;;;;0.00;0.00;;;34.00;63.30;;;;;;5051172;28;20219;-69
2023/06/19 11:53:22;;;;;;;0.00;0.00;;;34.10;62.10;;;;;;5051396;28;20173;-70
2023/06/19 11:55:48;;;;;;;0.00;0.00;;;34.10;60.80;;;;;;5051295;28;20659;-69
2023/06/19 11:58:15;;;;;;;0.10;0.10;;;34.20;61.30;;;;;;5055740;28;20180;-69
2023/06/19 12:00:42;;;;;;;0.00;0.00;;;34.40;61.40;;;;;;5057876;28;20173;-69
2023/06/19 12:03:08;;;;;;;0.00;0.00;;;34.40;61.30;;;;;;5058050;28;20260;-70
2023/06/19 12:05:33;;;;;;;0.00;0.00;;;34.40;61.30;;;;;;5057848;28;20173;-69
2023/06/19 12:08:02;;;;;;;0.00;0.00;;;34.30;59.50;;;;;;5057933;28;20172;-69
2023/06/19 12:10:28;;;;;;;0.20;0.20;;;34.30;59.60;;;;;;5057856;28;20228;-69
2023/06/19 12:12:53;;;;;;;0.00;0.00;;;34.40;59.70;;;;;;5057844;28;20173;-69
2023/06/19 12:15:19;;;;;;;0.00;0.00;;;34.40;59.70;;;;;;5057833;28;20246;-69
2023/06/19 12:17:45;;;;;;;0.00;0.00;;;34.40;59.20;;;;;;5058576;28;20161;-69
2023/06/19 12:20:13;;;;;;;0.00;0.00;;;34.30;58.50;;;;;;5077962;28;20167;-70
2023/06/19 12:22:39;;;;;;;0.00;0.00;;;34.10;58.40;;;;;;5077834;28;20164;-69
2023/06/19 12:25:05;;;;;;;0.00;0.00;;;33.80;58.90;;;;;;5077741;28;20234;-69
2023/06/19 12:27:30;;;;;;;0.28;0.28;;;33.30;59.30;;;;;;5076349;28;20228;-68
2023/06/19 12:29:56;;;;;;;0.00;0.00;;;32.90;61.40;;;;;;5077619;28;20678;-69
2023/06/19 12:32:22;;;;;;;0.00;0.00;;;32.70;62.40;;;;;;5077768;28;20627;-69
2023/06/19 12:34:47;;;;;;;0.00;0.00;;;32.60;63.00;;;;;;5077732;28;20176;-69
2023/06/19 12:37:19;;;;;;;0.00;0.00;;;32.80;62.80;;;;;;5077740;28;20317;-69
2023/06/19 12:39:44;;;;;;;0.00;0.00;;;32.90;61.80;;;;;;5077561;28;20251;-68
2023/06/19 12:42:13;;;;;;;0.00;0.00;;;32.80;61.40;;;;;;5077739;28;20298;-69
2023/06/19 12:44:39;;;;;;;0.00;0.00;;;32.90;61.40;;;;;;5077449;28;20183;-68
2023/06/19 12:47:05;;;;;;;0.00;0.00;;;33.30;62.00;;;;;;5077625;28;20623;-69